WMI weather

Modlin Airport
Warsaw, Masovia, Poland

Public forecast

Using degrees Celsius for public forecast. Weather courtesy of forecast.io.

Current aviation weather report (METAR) for Modlin Airport

Retrieved 2019/10/14 12:30 UTC (0 seconds ago):

EPMO 141230Z 23008KT 200V260 CAVOK 23/13 Q1016

Aviation forecast (TAF) for Modlin Airport

Retrieved 2019/10/14 12:00 UTC (28 minutes ago):

TAF EPMO 141130Z 1412/1512 25010KT CAVOK BECMG 1415/1417 VRB02KT BECMG 1417/1419 2000 BR TEMPO 1420/1506 0800 FG PROB40 1422/1506 0200 FG BECMG 1505/1507 14012KT BECMG 1508/1510 CAVOK